LPPR/OPO METAR and TAF weather

Enter ICAO airport designator
Station Type Date Time Source
LPPR METAR 2019/10/15 19:00 UTC NOAA

LPPR 151900Z 18013KT 9999 FEW040 16/14 Q1019


Station Type Date Time Source
LPPR Decoded METAR 2019/10/15 19:00 UTC NOAA

Porto / Pedras Rubras, Portugal (LPPR) 41-14N 008-41W 77M
Oct 15, 2019 - 03:00 PM EDT / 2019.10.15 1900 UTC
Wind: from the S (180 degrees) at 15 MPH (13 KT):0
Visibility: greater than 7 mile(s):0
Sky conditions: mostly clear
Temperature: 60 F (16 C)
Dew Point: 57 F (14 C)
Relative Humidity: 87%
Pressure (altimeter): 30.09 in. Hg (1019 hPa)
ob: LPPR 151900Z 18013KT 9999 FEW040 16/14 Q1019
cycle: 19

Station Type Date Time Source
LPPR TAF 2019/10/15 18:18 UTC NOAA

TAF LPPR 151700Z 1518/1618 18013KT 9999 BKN030
BECMG 1603/1606 6000 -RA SCT012 BKN025 PROB40
TEMPO 1606/1616 3000 RADZ BR SCT006 BKN012
BECMG 1616/1618 18020G30KT 5000 RADZ BR SCT006 BKN012

Example: see airport list